Time;durP1;ratioP1;P1;durP2;ratioP2;P2;SDS_P1;SDS_P2;PMS_P1;PMS_P2;Temp;Humidity;BMP_temperature;BMP_pressure;BME280_temperature;BME280_humidity;BME280_pressure;Samples;Min_cycle;Max_cycle;Signal;HPM_P1;HPM_P2
2020/12/25 00:02:12;;;;;;;1.25;1.15;;;0.80;99.90;;;;;;5096812;28;20030;-78
2020/12/25 00:04:39;;;;;;;1.08;0.98;;;0.80;99.90;;;;;;5111749;28;20028;-82
2020/12/25 00:07:05;;;;;;;1.25;0.98;;;0.70;99.90;;;;;;5098447;28;20044;-81
2020/12/25 00:09:31;;;;;;;1.23;1.13;;;0.70;99.90;;;;;;5091699;28;20081;-74
2020/12/25 00:11:57;;;;;;;1.77;1.50;;;0.70;99.90;;;;;;5090741;28;20024;-75
2020/12/25 00:14:22;;;;;;;1.10;0.88;;;0.80;99.90;;;;;;5091272;28;20073;-70
2020/12/25 00:16:48;;;;;;;1.20;1.10;;;0.80;99.90;;;;;;5091104;28;20024;-84
2020/12/25 00:19:14;;;;;;;1.15;1.05;;;0.80;99.90;;;;;;5073417;28;20036;-70
2020/12/25 00:21:40;;;;;;;2.00;1.10;;;0.80;99.90;;;;;;5073602;28;20077;-76
2020/12/25 00:24:05;;;;;;;1.35;0.95;;;0.80;99.90;;;;;;5074364;28;20027;-77
2020/12/25 00:26:32;;;;;;;1.48;0.95;;;0.80;99.90;;;;;;5093083;28;20024;-76
2020/12/25 00:29:00;;;;;;;1.30;1.20;;;0.80;99.90;;;;;;5091175;28;20028;-77
2020/12/25 00:31:28;;;;;;;1.40;1.30;;;0.80;99.90;;;;;;5091407;28;20035;-76
2020/12/25 00:33:58;;;;;;;1.02;0.85;;;0.80;99.90;;;;;;5109467;28;20066;-72
2020/12/25 00:36:25;;;;;;;1.25;0.80;;;0.90;99.90;;;;;;5099863;28;20122;-71
2020/12/25 00:38:51;;;;;;;0.85;0.85;;;0.90;99.90;;;;;;5094842;28;20096;-81
2020/12/25 00:41:17;;;;;;;0.77;0.77;;;0.90;99.90;;;;;;5095784;28;20028;-76
2020/12/25 00:43:42;;;;;;;1.20;0.68;;;0.90;99.90;;;;;;5095080;28;20020;-71
2020/12/25 00:46:12;;;;;;;1.40;1.30;;;0.90;99.90;;;;;;5094048;28;20473;-73
2020/12/25 00:48:38;;;;;;;1.02;1.00;;;0.90;99.90;;;;;;5097389;28;20381;-76
2020/12/25 00:51:04;;;;;;;1.50;1.15;;;0.90;99.90;;;;;;5096508;28;20096;-75
2020/12/25 00:53:30;;;;;;;1.60;1.50;;;0.90;99.90;;;;;;5095927;28;20024;-76
2020/12/25 00:55:55;;;;;;;2.03;1.58;;;0.80;99.90;;;;;;5096505;28;20465;-76
2020/12/25 00:58:21;;;;;;;2.13;1.50;;;0.80;99.90;;;;;;5098021;28;20043;-76
2020/12/25 01:00:47;;;;;;;1.50;1.40;;;0.80;99.90;;;;;;5096312;28;20031;-85
2020/12/25 01:03:12;;;;;;;1.55;1.40;;;0.80;99.90;;;;;;5104341;28;20052;-72
2020/12/25 01:05:39;;;;;;;2.22;1.77;;;0.80;99.90;;;;;;5097174;28;20376;-68
2020/12/25 01:08:05;;;;;;;2.60;2.40;;;0.70;99.90;;;;;;5056071;28;20035;-71
2020/12/25 01:10:31;;;;;;;2.83;2.53;;;0.70;99.90;;;;;;5056871;28;20028;-85
2020/12/25 01:12:56;;;;;;;3.17;2.88;;;0.60;99.90;;;;;;5080303;28;20032;-70
2020/12/25 01:15:22;;;;;;;3.60;2.83;;;0.70;99.90;;;;;;5095324;28;20454;-76
2020/12/25 01:17:49;;;;;;;2.55;2.35;;;0.70;99.90;;;;;;5094896;28;20032;-74
2020/12/25 01:20:14;;;;;;;3.55;2.90;;;0.80;99.90;;;;;;5094285;28;20032;-75
2020/12/25 01:22:40;;;;;;;3.60;2.95;;;0.80;99.90;;;;;;5094837;28;20032;-80
2020/12/25 01:25:05;;;;;;;2.97;2.67;;;0.80;99.90;;;;;;5076374;28;20067;-75
2020/12/25 01:27:31;;;;;;;3.00;2.70;;;0.80;99.90;;;;;;5094422;28;20111;-76
2020/12/25 01:29:57;;;;;;;4.18;2.88;;;0.70;99.90;;;;;;5093451;28;20036;-71
2020/12/25 01:32:22;;;;;;;3.33;2.65;;;0.70;99.90;;;;;;5067263;28;20043;-76
2020/12/25 01:34:48;;;;;;;4.10;2.92;;;0.70;99.90;;;;;;5111255;28;20027;-76
2020/12/25 01:37:14;;;;;;;5.00;3.65;;;0.60;99.90;;;;;;5114430;28;20027;-76
2020/12/25 01:39:39;;;;;;;5.00;4.18;;;0.60;99.90;;;;;;5115045;28;20514;-84
2020/12/25 01:42:05;;;;;;;5.40;4.30;;;0.60;99.90;;;;;;5113385;28;20480;-76
2020/12/25 01:44:30;;;;;;;5.82;4.53;;;0.60;99.90;;;;;;5093347;28;20032;-75
2020/12/25 01:46:56;;;;;;;6.82;4.78;;;0.60;99.90;;;;;;5092846;28;20112;-74
2020/12/25 01:49:22;;;;;;;4.78;3.38;;;0.70;99.90;;;;;;5094552;28;20035;-81
2020/12/25 01:51:49;;;;;;;4.88;3.50;;;0.80;99.90;;;;;;5094555;28;20094;-74
2020/12/25 01:54:15;;;;;;;4.25;3.22;;;0.90;99.90;;;;;;5096175;28;20044;-76
2020/12/25 01:56:42;;;;;;;4.85;3.83;;;0.90;99.90;;;;;;5094708;28;20528;-75
2020/12/25 01:59:09;;;;;;;6.43;4.00;;;0.90;99.90;;;;;;5093546;28;20621;-82
2020/12/25 02:01:35;;;;;;;7.22;4.43;;;1.00;99.90;;;;;;5074032;28;20055;-76
2020/12/25 02:04:01;;;;;;;9.80;5.30;;;1.00;99.90;;;;;;5090303;28;20067;-78
2020/12/25 02:06:26;;;;;;;6.43;4.97;;;1.00;99.90;;;;;;5086815;28;20480;-76
2020/12/25 02:08:52;;;;;;;12.50;6.00;;;1.10;99.90;;;;;;5073237;28;20028;-84
2020/12/25 02:11:19;;;;;;;9.88;6.13;;;1.10;99.90;;;;;;5073683;28;20055;-87
2020/12/25 02:13:44;;;;;;;9.05;6.30;;;1.20;99.90;;;;;;5084824;28;20054;-68
2020/12/25 02:16:10;;;;;;;10.65;6.93;;;1.20;99.90;;;;;;5092990;28;20678;-75
2020/12/25 02:18:39;;;;;;;7.63;5.93;;;1.20;99.90;;;;;;5093534;28;20032;-70
2020/12/25 02:21:05;;;;;;;12.55;6.57;;;1.30;99.90;;;;;;5074709;28;20020;-75
2020/12/25 02:23:31;;;;;;;8.00;6.32;;;1.30;99.90;;;;;;5082621;28;20036;-74
2020/12/25 02:25:56;;;;;;;10.68;7.55;;;1.40;99.90;;;;;;5079196;28;20034;-76
2020/12/25 02:28:22;;;;;;;10.05;7.05;;;1.40;99.90;;;;;;5074433;28;20061;-76
2020/12/25 02:30:48;;;;;;;10.32;7.82;;;1.40;99.90;;;;;;5091985;28;20384;-70
2020/12/25 02:33:13;;;;;;;11.27;7.15;;;1.40;99.90;;;;;;5089465;28;20032;-75
2020/12/25 02:35:39;;;;;;;10.88;7.15;;;1.50;99.90;;;;;;5091933;28;20020;-71
2020/12/25 02:38:05;;;;;;;9.82;6.70;;;1.40;99.90;;;;;;5073445;28;20024;-69
2020/12/25 02:40:31;;;;;;;10.13;7.47;;;1.50;99.90;;;;;;5092068;28;20112;-69
2020/12/25 02:42:56;;;;;;;11.13;7.43;;;1.50;99.90;;;;;;5091345;28;20578;-75
2020/12/25 02:45:22;;;;;;;11.73;7.47;;;1.50;99.90;;;;;;5092073;28;20026;-74
2020/12/25 02:47:48;;;;;;;11.35;7.57;;;1.60;99.90;;;;;;5086015;28;20486;-71
2020/12/25 02:50:14;;;;;;;11.40;7.55;;;1.50;99.90;;;;;;5081167;28;20020;-71
2020/12/25 02:52:40;;;;;;;10.18;7.72;;;1.50;99.90;;;;;;5082970;28;20453;-74
2020/12/25 02:55:07;;;;;;;13.18;7.95;;;1.60;99.90;;;;;;5080887;28;20024;-77
2020/12/25 02:57:32;;;;;;;12.65;8.13;;;1.60;99.90;;;;;;5081323;28;20084;-79
2020/12/25 02:59:58;;;;;;;14.52;7.97;;;1.50;99.90;;;;;;5077229;28;20025;-72
2020/12/25 03:02:23;;;;;;;13.02;8.20;;;1.60;99.90;;;;;;5075949;28;20024;-74
2020/12/25 03:04:49;;;;;;;8.88;6.63;;;1.60;99.90;;;;;;5081727;28;20078;-77
2020/12/25 03:07:15;;;;;;;12.63;7.85;;;1.70;99.90;;;;;;5081337;28;20043;-75
2020/12/25 03:09:40;;;;;;;12.40;7.60;;;1.70;99.90;;;;;;5080815;28;20063;-83
2020/12/25 03:12:07;;;;;;;13.07;7.15;;;1.70;99.90;;;;;;5081903;28;20016;-74
2020/12/25 03:14:33;;;;;;;14.88;8.15;;;1.70;99.90;;;;;;5081329;28;20017;-74
2020/12/25 03:16:59;;;;;;;10.23;7.93;;;1.70;99.90;;;;;;5080726;28;20047;-80
2020/12/25 03:19:24;;;;;;;12.15;7.90;;;1.60;99.90;;;;;;5082339;28;20012;-73
2020/12/25 03:21:50;;;;;;;11.02;7.40;;;1.60;99.90;;;;;;5081680;28;20392;-80
2020/12/25 03:24:17;;;;;;;12.93;7.70;;;1.70;99.90;;;;;;5090035;28;20497;-74
2020/12/25 03:26:42;;;;;;;12.85;8.30;;;1.70;99.90;;;;;;5092682;28;20051;-75
2020/12/25 03:29:08;;;;;;;11.82;7.28;;;1.70;99.90;;;;;;5091587;28;20032;-78
2020/12/25 03:31:34;;;;;;;12.98;7.78;;;1.70;99.90;;;;;;5093031;28;20364;-73
2020/12/25 03:33:59;;;;;;;10.93;7.70;;;1.70;99.90;;;;;;5090683;28;20444;-81
2020/12/25 03:36:25;;;;;;;9.75;6.65;;;1.70;99.90;;;;;;5092197;28;20073;-79
2020/12/25 03:38:51;;;;;;;10.32;7.03;;;1.70;99.90;;;;;;5092061;28;20439;-80
2020/12/25 03:41:16;;;;;;;12.23;8.02;;;1.70;99.90;;;;;;5091860;28;20024;-78
2020/12/25 03:43:42;;;;;;;13.35;8.15;;;1.70;99.90;;;;;;5092137;28;20469;-71
2020/12/25 03:46:08;;;;;;;11.85;7.43;;;1.70;99.90;;;;;;5091426;28;20052;-74
2020/12/25 03:48:33;;;;;;;13.32;8.43;;;1.70;99.90;;;;;;5092109;28;20055;-72
2020/12/25 03:51:00;;;;;;;17.17;8.95;;;1.60;99.90;;;;;;5091738;28;20028;-85
2020/12/25 03:53:26;;;;;;;15.60;8.77;;;1.60;99.90;;;;;;5092187;28;20016;-74
2020/12/25 03:55:51;;;;;;;13.15;9.05;;;1.60;99.90;;;;;;5092060;28;20074;-80
2020/12/25 03:58:17;;;;;;;16.48;8.95;;;1.60;99.90;;;;;;5091615;28;20028;-70
2020/12/25 04:00:43;;;;;;;11.48;7.40;;;1.60;99.90;;;;;;5092135;28;20115;-79
2020/12/25 04:03:08;;;;;;;13.05;7.88;;;1.70;99.90;;;;;;5087318;28;20036;-74
2020/12/25 04:05:34;;;;;;;11.05;7.88;;;1.70;99.90;;;;;;5071343;28;20021;-72
2020/12/25 04:07:59;;;;;;;9.80;6.57;;;1.80;99.90;;;;;;5089448;28;20036;-69
2020/12/25 04:10:25;;;;;;;12.82;7.80;;;1.80;99.90;;;;;;5074228;28;20030;-70
2020/12/25 04:12:51;;;;;;;12.82;9.52;;;1.80;99.90;;;;;;5093188;28;20059;-83
2020/12/25 04:15:16;;;;;;;14.73;8.85;;;1.70;99.90;;;;;;5091149;28;20042;-80
2020/12/25 04:17:42;;;;;;;12.63;8.30;;;1.70;99.90;;;;;;5092688;28;20035;-78
2020/12/25 04:20:08;;;;;;;14.52;9.13;;;1.70;99.90;;;;;;5092333;28;20080;-77
2020/12/25 04:22:33;;;;;;;16.02;9.52;;;1.70;99.90;;;;;;5092350;28;20114;-75
2020/12/25 04:24:59;;;;;;;13.63;8.68;;;1.70;99.90;;;;;;5073072;28;20024;-78
2020/12/25 04:27:25;;;;;;;13.20;9.13;;;1.70;99.90;;;;;;5091679;28;20075;-74
2020/12/25 04:29:50;;;;;;;14.82;8.68;;;1.70;99.90;;;;;;5092093;28;20054;-68
2020/12/25 04:32:16;;;;;;;13.68;8.40;;;1.70;99.90;;;;;;5090743;28;20032;-83
2020/12/25 04:34:42;;;;;;;12.48;8.70;;;1.70;99.90;;;;;;5056541;28;20028;-74
2020/12/25 04:37:08;;;;;;;11.35;7.65;;;1.70;99.90;;;;;;5070655;28;20094;-75
2020/12/25 04:39:33;;;;;;;12.00;8.02;;;1.70;99.90;;;;;;5071459;28;20351;-70
2020/12/25 04:41:59;;;;;;;11.90;7.88;;;1.70;99.90;;;;;;5070605;28;20021;-74
2020/12/25 04:44:25;;;;;;;10.05;7.65;;;1.70;99.90;;;;;;5053561;28;20067;-71
2020/12/25 04:46:51;;;;;;;12.77;7.57;;;1.70;99.90;;;;;;5071357;28;20095;-76
2020/12/25 04:49:19;;;;;;;11.10;8.15;;;1.70;99.90;;;;;;5070490;28;20131;-85
2020/12/25 04:51:44;;;;;;;10.27;7.50;;;1.70;99.90;;;;;;5055018;28;20381;-74
2020/12/25 04:54:10;;;;;;;9.32;6.75;;;1.70;99.90;;;;;;5071793;28;20024;-71
2020/12/25 04:56:36;;;;;;;10.27;6.80;;;1.70;99.90;;;;;;5071436;28;20025;-76
2020/12/25 04:59:01;;;;;;;10.25;7.07;;;1.70;99.90;;;;;;5070766;28;20024;-71
2020/12/25 05:01:28;;;;;;;10.90;7.72;;;1.70;99.90;;;;;;5070825;28;20068;-75
2020/12/25 05:03:53;;;;;;;10.07;6.95;;;1.60;99.90;;;;;;5052396;28;20029;-81
2020/12/25 05:06:19;;;;;;;9.50;7.32;;;1.60;99.90;;;;;;5075989;28;20350;-71
2020/12/25 05:08:47;;;;;;;11.02;7.93;;;1.60;99.90;;;;;;5091137;28;20032;-75
2020/12/25 05:11:17;;;;;;;9.55;7.18;;;1.60;99.90;;;;;;5090605;28;20028;-75
2020/12/25 05:13:50;;;;;;;12.00;7.10;;;1.60;99.90;;;;;;5073242;28;20031;-74
2020/12/25 05:16:17;;;;;;;10.40;7.97;;;1.60;99.90;;;;;;5090347;28;20096;-74
2020/12/25 05:18:49;;;;;;;9.85;7.15;;;1.60;99.90;;;;;;5082621;28;20031;-78
2020/12/25 05:21:17;;;;;;;10.35;7.55;;;1.60;99.90;;;;;;5073907;28;20028;-81
2020/12/25 05:23:47;;;;;;;10.15;7.30;;;1.60;99.90;;;;;;5073420;28;20059;-71
2020/12/25 05:26:14;;;;;;;10.93;7.97;;;1.60;99.90;;;;;;5074015;28;20061;-79
2020/12/25 05:28:47;;;;;;;10.88;7.63;;;1.60;99.90;;;;;;5073751;28;20398;-67
2020/12/25 05:31:13;;;;;;;9.60;7.22;;;1.60;99.90;;;;;;5073578;28;20207;-75
2020/12/25 05:33:39;;;;;;;11.55;8.65;;;1.50;99.90;;;;;;5074555;28;20043;-76
2020/12/25 05:36:13;;;;;;;9.23;7.47;;;1.50;99.90;;;;;;5072456;28;20021;-70
2020/12/25 05:38:45;;;;;;;10.95;7.45;;;1.50;99.90;;;;;;5074597;28;20020;-75
2020/12/25 05:41:11;;;;;;;11.02;8.18;;;1.60;99.90;;;;;;5073866;28;20024;-80
2020/12/25 05:43:37;;;;;;;12.52;8.02;;;1.60;99.90;;;;;;5070479;28;20024;-76
2020/12/25 05:46:03;;;;;;;9.68;7.32;;;1.60;99.90;;;;;;5073838;28;20029;-79
2020/12/25 05:48:28;;;;;;;12.07;8.70;;;1.60;99.90;;;;;;5074038;28;20040;-70
2020/12/25 05:50:54;;;;;;;13.32;8.65;;;1.60;99.90;;;;;;5074565;28;20029;-70
2020/12/25 05:53:20;;;;;;;11.85;8.45;;;1.60;99.90;;;;;;5073063;28;20074;-75
2020/12/25 05:55:46;;;;;;;10.52;7.85;;;1.70;99.90;;;;;;5074232;28;20592;-75
2020/12/25 05:58:14;;;;;;;11.85;8.77;;;1.70;99.90;;;;;;5073355;28;20055;-74
2020/12/25 06:00:41;;;;;;;12.57;9.25;;;1.60;99.90;;;;;;5073872;28;20027;-84
2020/12/25 06:03:15;;;;;;;13.32;8.75;;;1.60;99.90;;;;;;5073351;28;20024;-70
2020/12/25 06:05:42;;;;;;;10.98;8.10;;;1.60;99.90;;;;;;5074346;28;20097;-80
2020/12/25 06:08:41;;;;;;;15.43;10.30;;;1.70;99.90;;;;;;5093242;28;20044;-70
2020/12/25 06:11:06;;;;;;;15.18;9.55;;;1.60;99.90;;;;;;5052921;28;20035;-73
2020/12/25 06:13:42;;;;;;;17.85;10.65;;;1.60;99.90;;;;;;5089219;28;20020;-75
2020/12/25 06:16:14;;;;;;;12.02;8.90;;;1.50;99.90;;;;;;5073343;28;20481;-73
2020/12/25 06:19:05;;;;;;;14.07;9.10;;;1.60;99.90;;;;;;5073895;28;20154;-74
2020/12/25 06:21:49;;;;;;;14.20;9.38;;;1.60;99.90;;;;;;5060620;28;20077;-77
2020/12/25 06:24:18;;;;;;;12.35;9.13;;;1.60;99.90;;;;;;5054714;28;20032;-75
2020/12/25 06:26:44;;;;;;;15.40;9.68;;;1.60;99.90;;;;;;5073081;28;20027;-67
2020/12/25 06:29:16;;;;;;;13.40;9.30;;;1.60;99.90;;;;;;5071618;28;20025;-70
2020/12/25 06:31:43;;;;;;;12.05;8.40;;;1.60;99.90;;;;;;5072696;28;20081;-74
2020/12/25 06:34:09;;;;;;;18.75;11.15;;;1.60;99.90;;;;;;5072486;28;20029;-71
2020/12/25 06:36:36;;;;;;;14.70;10.30;;;1.60;99.90;;;;;;5073244;28;20389;-76
2020/12/25 06:39:10;;;;;;;13.30;9.75;;;1.50;99.90;;;;;;5072569;28;20028;-76
2020/12/25 06:41:39;;;;;;;14.40;9.77;;;1.60;99.90;;;;;;5073210;28;20028;-78
2020/12/25 06:44:16;;;;;;;17.27;10.80;;;1.50;99.90;;;;;;5072357;28;20020;-84
2020/12/25 06:46:49;;;;;;;15.73;10.57;;;1.50;99.90;;;;;;5066549;28;20291;-84
2020/12/25 06:49:16;;;;;;;17.48;10.18;;;1.50;99.90;;;;;;5052131;28;20367;-76
2020/12/25 06:51:47;;;;;;;16.42;10.25;;;1.50;99.90;;;;;;5051510;28;20421;-72
2020/12/25 06:54:20;;;;;;;12.70;8.38;;;1.50;99.90;;;;;;5071578;28;20055;-76
2020/12/25 06:56:56;;;;;;;12.95;8.68;;;1.40;99.90;;;;;;5072812;28;20350;-76
2020/12/25 06:59:23;;;;;;;12.48;8.05;;;1.30;99.90;;;;;;5054394;28;20029;-76
2020/12/25 07:01:52;;;;;;;13.63;9.18;;;1.20;99.90;;;;;;5072828;28;20024;-79
2020/12/25 07:04:27;;;;;;;13.52;9.02;;;1.20;99.90;;;;;;5071297;28;20469;-68
2020/12/25 07:07:20;;;;;;;17.85;10.05;;;1.20;99.90;;;;;;5054647;28;20028;-76
2020/12/25 07:09:47;;;;;;;14.50;8.27;;;1.10;99.90;;;;;;5068227;28;20043;-75
2020/12/25 07:12:20;;;;;;;14.80;9.07;;;1.10;99.90;;;;;;5071886;28;20017;-76
2020/12/25 07:14:46;;;;;;;14.65;9.18;;;1.10;99.90;;;;;;5072908;28;20025;-70
2020/12/25 07:17:12;;;;;;;13.68;8.18;;;1.10;99.90;;;;;;5071570;28;20028;-75
2020/12/25 07:19:39;;;;;;;12.93;8.13;;;1.10;99.90;;;;;;5072719;28;20108;-75
2020/12/25 07:22:05;;;;;;;12.00;7.55;;;1.10;99.90;;;;;;5072258;28;20024;-75
2020/12/25 07:24:31;;;;;;;13.25;6.80;;;1.10;99.90;;;;;;5072441;28;20458;-74
2020/12/25 07:26:57;;;;;;;10.60;7.55;;;1.20;99.90;;;;;;5072091;28;20040;-70
2020/12/25 07:29:25;;;;;;;11.57;6.90;;;1.20;99.90;;;;;;5071740;28;20064;-75
2020/12/25 07:31:52;;;;;;;12.82;8.05;;;1.20;99.90;;;;;;5072742;28;20047;-78
2020/12/25 07:34:22;;;;;;;10.27;7.50;;;1.20;99.90;;;;;;5072006;28;20032;-74
2020/12/25 07:36:49;;;;;;;10.32;7.30;;;1.20;99.90;;;;;;5072152;28;20086;-78
2020/12/25 07:39:15;;;;;;;13.30;8.55;;;1.20;99.90;;;;;;5054433;28;20045;-77
2020/12/25 07:41:41;;;;;;;11.38;7.90;;;1.10;99.90;;;;;;5073343;28;20032;-77
2020/12/25 07:44:07;;;;;;;9.77;7.00;;;1.10;99.90;;;;;;5071845;28;20025;-72
2020/12/25 07:46:34;;;;;;;11.00;7.22;;;1.10;99.90;;;;;;5075884;28;20400;-76
2020/12/25 07:49:00;;;;;;;9.85;7.05;;;1.20;99.90;;;;;;5092114;28;20032;-78
2020/12/25 07:51:27;;;;;;;10.13;6.55;;;1.20;99.90;;;;;;5092614;28;20085;-76
2020/12/25 07:53:57;;;;;;;10.18;6.78;;;1.20;99.90;;;;;;5074117;28;20024;-72
2020/12/25 07:56:23;;;;;;;;;;;1.20;99.90;;;;;;5091833;28;20135;-80
2020/12/25 07:58:51;;;;;;;11.85;7.53;;;1.20;99.90;;;;;;5072189;28;19911;-77
2020/12/25 08:01:25;;;;;;;11.40;7.95;;;1.20;99.90;;;;;;5090495;28;20442;-77
2020/12/25 08:03:53;;;;;;;14.00;9.13;;;1.20;99.90;;;;;;5072428;28;20111;-76
2020/12/25 08:06:22;;;;;;;13.57;8.63;;;1.20;99.90;;;;;;5070203;28;20082;-76
2020/12/25 08:08:58;;;;;;;12.68;8.68;;;1.10;99.90;;;;;;5071523;28;20099;-76
2020/12/25 08:11:25;;;;;;;13.23;8.55;;;1.10;99.90;;;;;;5070796;28;20034;-76
2020/12/25 08:13:56;;;;;;;12.48;8.68;;;1.10;99.90;;;;;;5071469;28;20040;-74
2020/12/25 08:16:23;;;;;;;13.23;9.18;;;1.10;99.90;;;;;;5070754;28;20021;-75
2020/12/25 08:18:50;;;;;;;13.55;9.43;;;1.10;99.90;;;;;;5053902;28;20074;-73
2020/12/25 08:21:17;;;;;;;13.95;8.55;;;1.10;99.90;;;;;;5070459;28;20520;-76
2020/12/25 08:23:44;;;;;;;15.25;9.60;;;1.10;99.90;;;;;;5071206;28;20032;-74
2020/12/25 08:26:11;;;;;;;14.57;9.77;;;1.20;99.90;;;;;;5099022;28;20043;-74
2020/12/25 08:28:40;;;;;;;16.27;10.52;;;1.20;99.90;;;;;;5091566;28;20036;-74
2020/12/25 08:31:17;;;;;;;13.00;9.45;;;1.20;99.90;;;;;;5073277;28;20021;-79
2020/12/25 08:33:57;;;;;;;15.88;10.65;;;1.30;99.90;;;;;;5091794;28;20503;-74
2020/12/25 08:36:25;;;;;;;18.88;11.82;;;1.30;99.90;;;;;;5073050;28;20017;-74
2020/12/25 08:38:51;;;;;;;20.85;12.95;;;1.30;99.90;;;;;;5073163;28;20067;-75
2020/12/25 08:41:17;;;;;;;19.35;12.00;;;1.30;99.90;;;;;;5072693;28;20477;-71
2020/12/25 08:43:43;;;;;;;25.55;13.30;;;1.30;99.90;;;;;;5091729;28;20056;-74
2020/12/25 08:46:09;;;;;;;20.00;13.77;;;1.30;99.90;;;;;;5089756;28;20031;-79
2020/12/25 08:48:48;;;;;;;23.33;12.95;;;1.40;99.90;;;;;;5073554;28;20040;-74
2020/12/25 08:51:15;;;;;;;24.65;14.25;;;1.40;99.90;;;;;;5090812;28;20031;-74
2020/12/25 08:53:52;;;;;;;25.48;13.95;;;1.50;99.90;;;;;;5089962;28;20031;-74
2020/12/25 08:56:23;;;;;;;25.00;13.07;;;1.50;99.90;;;;;;5074190;28;20027;-74
2020/12/25 08:58:55;;;;;;;25.00;14.38;;;1.60;99.90;;;;;;5075017;28;20036;-75
2020/12/25 09:01:21;;;;;;;27.88;14.38;;;1.60;99.90;;;;;;5074175;28;20119;-69
2020/12/25 09:03:48;;;;;;;26.95;15.18;;;1.60;99.90;;;;;;5074914;28;20033;-75
2020/12/25 09:06:14;;;;;;;25.98;15.35;;;1.60;99.90;;;;;;5060960;28;20030;-73
2020/12/25 09:08:40;;;;;;;26.05;13.85;;;1.60;99.90;;;;;;5077213;28;20031;-69
2020/12/25 09:11:15;;;;;;;23.48;14.60;;;1.70;99.90;;;;;;5094245;28;20027;-80
2020/12/25 09:13:41;;;;;;;21.33;13.02;;;1.70;99.90;;;;;;5094952;28;20031;-72
2020/12/25 09:16:07;;;;;;;27.75;15.20;;;1.80;99.90;;;;;;5094255;28;20024;-76
2020/12/25 09:18:35;;;;;;;19.67;13.32;;;1.80;99.90;;;;;;5095633;28;20533;-71
2020/12/25 09:21:01;;;;;;;22.52;13.00;;;1.80;99.90;;;;;;5095683;28;20035;-74
2020/12/25 09:23:28;;;;;;;20.83;13.55;;;1.80;99.90;;;;;;5093979;28;20020;-74
2020/12/25 09:25:53;;;;;;;25.15;14.50;;;1.80;99.90;;;;;;5074504;28;20035;-74
2020/12/25 09:28:20;;;;;;;25.00;14.68;;;1.90;99.90;;;;;;5073507;28;20041;-74
2020/12/25 09:30:46;;;;;;;23.80;13.82;;;1.80;99.90;;;;;;5074473;28;20476;-74
2020/12/25 09:33:11;;;;;;;25.90;14.13;;;1.80;99.90;;;;;;5073943;28;20104;-74
2020/12/25 09:35:37;;;;;;;20.90;13.50;;;1.90;99.90;;;;;;5056636;28;20086;-73
2020/12/25 09:38:03;;;;;;;22.27;13.18;;;2.00;99.90;;;;;;5056673;28;20082;-82
2020/12/25 09:40:29;;;;;;;24.40;15.35;;;2.00;99.90;;;;;;5073911;28;20032;-74
2020/12/25 09:42:55;;;;;;;24.50;14.52;;;2.00;99.90;;;;;;5072391;28;20032;-73
2020/12/25 09:45:21;;;;;;;25.08;14.55;;;2.00;99.90;;;;;;5073439;28;20028;-73
2020/12/25 09:47:46;;;;;;;21.98;12.75;;;2.00;99.90;;;;;;5088558;28;20077;-71
2020/12/25 09:50:12;;;;;;;25.50;14.35;;;2.10;99.90;;;;;;5093583;28;20024;-73
2020/12/25 09:52:38;;;;;;;23.33;12.07;;;2.10;99.90;;;;;;5093303;28;20028;-73
2020/12/25 09:55:05;;;;;;;21.15;11.57;;;2.20;99.90;;;;;;5094532;28;20020;-77
2020/12/25 09:57:31;;;;;;;21.55;13.02;;;2.30;99.90;;;;;;5092187;28;20020;-80
2020/12/25 10:00:06;;;;;;;19.80;11.25;;;2.30;99.90;;;;;;5091915;28;20028;-75
2020/12/25 10:02:32;;;;;;;21.65;13.23;;;2.40;99.90;;;;;;5093259;28;20028;-74
2020/12/25 10:04:59;;;;;;;17.65;11.70;;;2.40;99.90;;;;;;5093792;28;20016;-74
2020/12/25 10:07:25;;;;;;;17.70;11.45;;;2.40;99.90;;;;;;5091898;28;20034;-72
2020/12/25 10:09:51;;;;;;;18.92;11.57;;;2.40;99.90;;;;;;5093429;28;20162;-68
2020/12/25 10:12:16;;;;;;;16.40;9.18;;;2.40;99.90;;;;;;5093079;28;20480;-71
2020/12/25 10:14:42;;;;;;;21.70;11.02;;;2.40;99.90;;;;;;5093271;28;20546;-70
2020/12/25 10:17:08;;;;;;;19.15;11.05;;;2.40;99.90;;;;;;5096289;28;20407;-74
2020/12/25 10:19:35;;;;;;;16.92;9.32;;;2.40;99.90;;;;;;5091937;28;20031;-72
2020/12/25 10:22:01;;;;;;;15.07;8.93;;;2.40;99.90;;;;;;5093486;28;20081;-73
2020/12/25 10:24:27;;;;;;;13.75;8.85;;;2.40;99.90;;;;;;5092304;28;20026;-72
2020/12/25 10:26:54;;;;;;;13.43;8.60;;;2.40;99.90;;;;;;5093575;28;20103;-73
2020/12/25 10:29:20;;;;;;;13.02;8.85;;;2.40;99.90;;;;;;5097312;28;20035;-75
2020/12/25 10:31:47;;;;;;;13.40;8.40;;;2.30;99.90;;;;;;5075006;28;20034;-67
2020/12/25 10:34:13;;;;;;;14.50;8.70;;;2.30;99.90;;;;;;5092546;28;20056;-74
2020/12/25 10:36:40;;;;;;;13.23;8.63;;;2.20;99.90;;;;;;5093305;28;20381;-71
2020/12/25 10:39:06;;;;;;;15.70;8.43;;;2.20;99.90;;;;;;5090152;28;20021;-79
2020/12/25 10:41:32;;;;;;;12.38;8.40;;;2.20;99.90;;;;;;5091326;28;20479;-73
2020/12/25 10:43:59;;;;;;;16.27;9.13;;;2.30;99.90;;;;;;5092272;28;20028;-73
2020/12/25 10:46:26;;;;;;;12.85;8.40;;;2.30;99.90;;;;;;5073861;28;20048;-73
2020/12/25 10:48:52;;;;;;;16.33;9.55;;;2.30;99.90;;;;;;5075017;28;20036;-73
2020/12/25 10:51:19;;;;;;;13.98;8.50;;;2.30;99.90;;;;;;5092064;28;20106;-73
2020/12/25 10:53:47;;;;;;;19.08;10.43;;;2.40;99.90;;;;;;5075206;28;20020;-73
2020/12/25 10:56:42;;;;;;;14.05;8.90;;;2.40;99.90;;;;;;5095517;28;20043;-73
2020/12/25 10:59:08;;;;;;;12.20;7.97;;;2.50;99.90;;;;;;5063273;28;20119;-80
2020/12/25 11:01:34;;;;;;;17.85;10.25;;;2.50;99.90;;;;;;5072212;28;20446;-73
2020/12/25 11:04:00;;;;;;;14.90;8.35;;;2.50;99.90;;;;;;5057923;28;20025;-74
2020/12/25 11:06:45;;;;;;;14.70;9.18;;;2.50;99.90;;;;;;5071307;28;20028;-75
2020/12/25 11:09:11;;;;;;;17.08;9.65;;;2.40;99.90;;;;;;5069965;28;20535;-77
2020/12/25 11:11:40;;;;;;;11.60;7.80;;;2.50;99.90;;;;;;5071680;28;20048;-72
2020/12/25 11:14:07;;;;;;;14.13;7.88;;;2.50;99.90;;;;;;5072146;28;20037;-74
2020/12/25 11:16:36;;;;;;;12.85;8.27;;;2.40;99.90;;;;;;5070220;28;20123;-74
2020/12/25 11:19:06;;;;;;;11.88;7.45;;;2.40;99.90;;;;;;5091774;28;20417;-73
2020/12/25 11:21:32;;;;;;;11.50;7.95;;;2.40;99.90;;;;;;5092403;28;20027;-73
2020/12/25 11:24:00;;;;;;;15.13;7.72;;;2.30;99.90;;;;;;5089715;28;20032;-74
2020/12/25 11:26:32;;;;;;;11.15;7.78;;;2.30;99.90;;;;;;5073359;28;20028;-73
2020/12/25 11:29:03;;;;;;;10.57;6.05;;;2.30;99.90;;;;;;5092417;28;20054;-84
2020/12/25 11:31:29;;;;;;;12.80;7.38;;;2.20;99.90;;;;;;5073005;28;20032;-73
2020/12/25 11:33:56;;;;;;;10.57;6.50;;;2.20;99.90;;;;;;5073606;28;20058;-74
2020/12/25 11:36:29;;;;;;;9.90;6.85;;;2.20;99.90;;;;;;5091484;28;20020;-74
2020/12/25 11:38:56;;;;;;;11.40;6.75;;;2.20;99.90;;;;;;5072939;28;20077;-73
2020/12/25 11:41:23;;;;;;;12.73;6.28;;;2.20;99.90;;;;;;5090833;28;20034;-69
2020/12/25 11:43:50;;;;;;;11.77;6.63;;;2.10;99.90;;;;;;5074248;28;20027;-76
2020/12/25 11:46:17;;;;;;;11.68;6.72;;;2.10;99.90;;;;;;5090859;28;20055;-72
2020/12/25 11:48:43;;;;;;;14.82;6.82;;;2.20;99.90;;;;;;5073976;28;20028;-75
2020/12/25 11:51:14;;;;;;;9.75;6.25;;;2.20;99.90;;;;;;5092162;28;20035;-78
2020/12/25 11:53:40;;;;;;;11.02;6.53;;;2.20;99.90;;;;;;5092107;28;20056;-75
2020/12/25 11:56:06;;;;;;;9.88;6.78;;;2.30;99.90;;;;;;5092400;28;20067;-75
2020/12/25 11:58:31;;;;;;;13.70;7.28;;;2.30;99.90;;;;;;5091569;28;20070;-70
2020/12/25 12:00:59;;;;;;;11.93;6.90;;;2.30;99.90;;;;;;5073401;28;20036;-68
2020/12/25 12:03:26;;;;;;;11.63;6.70;;;2.30;99.90;;;;;;5091140;28;20055;-70
2020/12/25 12:05:52;;;;;;;12.77;7.05;;;2.30;99.90;;;;;;5090280;28;20103;-69
2020/12/25 12:08:17;;;;;;;11.95;7.45;;;2.30;99.90;;;;;;5072148;28;20115;-74
2020/12/25 12:10:43;;;;;;;9.70;6.35;;;2.20;99.90;;;;;;5091778;28;20028;-71
2020/12/25 12:13:09;;;;;;;11.35;7.18;;;2.20;99.90;;;;;;5091630;28;20070;-77
2020/12/25 12:15:36;;;;;;;14.30;7.80;;;2.30;99.90;;;;;;5090102;28;20611;-68
2020/12/25 12:18:01;;;;;;;12.95;5.90;;;2.30;99.90;;;;;;5093307;28;20039;-72
2020/12/25 12:20:27;;;;;;;10.45;6.47;;;2.30;99.90;;;;;;5073333;28;20035;-74
2020/12/25 12:22:53;;;;;;;10.52;5.57;;;2.30;99.90;;;;;;5091700;28;20080;-80
2020/12/25 12:25:18;;;;;;;7.60;5.60;;;2.20;99.90;;;;;;5091081;28;20445;-74
2020/12/25 12:27:44;;;;;;;9.07;6.22;;;2.20;99.90;;;;;;5091547;28;20468;-71
2020/12/25 12:30:10;;;;;;;8.27;5.18;;;2.20;99.90;;;;;;5093913;28;20457;-72
2020/12/25 12:32:35;;;;;;;7.03;5.25;;;2.20;99.90;;;;;;5095101;28;20119;-77
2020/12/25 12:35:01;;;;;;;16.70;5.30;;;2.20;99.90;;;;;;5095905;28;20039;-77
2020/12/25 12:37:27;;;;;;;6.93;5.43;;;2.20;99.90;;;;;;5094944;28;20034;-69
2020/12/25 12:39:52;;;;;;;8.60;5.40;;;2.20;99.90;;;;;;5095780;28;20032;-68
2020/12/25 12:42:18;;;;;;;7.55;5.13;;;2.20;99.90;;;;;;5095082;28;20074;-72
2020/12/25 12:44:44;;;;;;;13.55;6.07;;;2.20;99.90;;;;;;5095505;28;20027;-68
2020/12/25 12:47:09;;;;;;;11.60;5.53;;;2.20;99.90;;;;;;5095082;28;20055;-72
2020/12/25 12:49:35;;;;;;;9.35;5.45;;;2.10;99.90;;;;;;5094785;28;20173;-72